sensor_id;sensor_type;location;lat;lon;timestamp;P1;durP1;ratioP1;P2;durP2;ratioP2
18867;SDS011;9563;49.240;9.088;2022-12-07T00:01:05;9.53;;;4.90;;
18867;SDS011;9563;49.240;9.088;2022-12-07T00:03:33;9.43;;;5.30;;
18867;SDS011;9563;49.240;9.088;2022-12-07T00:06:00;9.27;;;4.83;;
18867;SDS011;9563;49.240;9.088;2022-12-07T00:08:29;9.97;;;5.03;;
18867;SDS011;9563;49.240;9.088;2022-12-07T00:11:00;10.93;;;5.60;;
18867;SDS011;9563;49.240;9.088;2022-12-07T00:13:28;7.87;;;4.83;;
18867;SDS011;9563;49.240;9.088;2022-12-07T00:15:56;9.47;;;5.47;;
18867;SDS011;9563;49.240;9.088;2022-12-07T00:18:27;13.90;;;5.60;;
18867;SDS011;9563;49.240;9.088;2022-12-07T00:20:58;9.93;;;5.53;;
18867;SDS011;9563;49.240;9.088;2022-12-07T00:23:25;10.03;;;5.50;;
18867;SDS011;9563;49.240;9.088;2022-12-07T00:25:52;10.97;;;5.40;;
18867;SDS011;9563;49.240;9.088;2022-12-07T00:28:19;10.40;;;5.90;;
18867;SDS011;9563;49.240;9.088;2022-12-07T00:30:46;10.70;;;6.30;;
18867;SDS011;9563;49.240;9.088;2022-12-07T00:33:14;9.83;;;5.97;;
18867;SDS011;9563;49.240;9.088;2022-12-07T00:35:41;12.37;;;6.40;;
18867;SDS011;9563;49.240;9.088;2022-12-07T00:38:08;11.17;;;5.63;;
18867;SDS011;9563;49.240;9.088;2022-12-07T00:40:35;11.17;;;5.50;;
18867;SDS011;9563;49.240;9.088;2022-12-07T00:43:02;8.43;;;5.57;;
18867;SDS011;9563;49.240;9.088;2022-12-07T00:45:29;11.70;;;5.83;;
18867;SDS011;9563;49.240;9.088;2022-12-07T00:47:56;9.67;;;5.27;;
18867;SDS011;9563;49.240;9.088;2022-12-07T00:50:24;10.67;;;5.50;;
18867;SDS011;9563;49.240;9.088;2022-12-07T00:52:51;9.37;;;5.50;;
18867;SDS011;9563;49.240;9.088;2022-12-07T00:55:18;11.23;;;5.63;;
18867;SDS011;9563;49.240;9.088;2022-12-07T00:57:44;13.43;;;6.20;;
18867;SDS011;9563;49.240;9.088;2022-12-07T01:00:11;11.13;;;5.90;;
18867;SDS011;9563;49.240;9.088;2022-12-07T01:02:39;10.00;;;5.50;;
18867;SDS011;9563;49.240;9.088;2022-12-07T01:05:06;9.40;;;5.47;;
18867;SDS011;9563;49.240;9.088;2022-12-07T01:07:35;10.73;;;5.40;;
18867;SDS011;9563;49.240;9.088;2022-12-07T01:10:02;11.57;;;5.33;;
18867;SDS011;9563;49.240;9.088;2022-12-07T01:12:29;8.47;;;5.13;;
18867;SDS011;9563;49.240;9.088;2022-12-07T01:14:56;10.03;;;5.23;;
18867;SDS011;9563;49.240;9.088;2022-12-07T01:17:23;9.17;;;5.27;;
18867;SDS011;9563;49.240;9.088;2022-12-07T01:19:50;9.27;;;5.90;;
18867;SDS011;9563;49.240;9.088;2022-12-07T01:22:16;8.27;;;5.30;;
18867;SDS011;9563;49.240;9.088;2022-12-07T01:24:45;9.80;;;5.40;;
18867;SDS011;9563;49.240;9.088;2022-12-07T01:27:12;10.80;;;5.60;;
18867;SDS011;9563;49.240;9.088;2022-12-07T01:29:39;10.77;;;5.17;;
18867;SDS011;9563;49.240;9.088;2022-12-07T01:32:06;8.87;;;5.07;;
18867;SDS011;9563;49.240;9.088;2022-12-07T01:34:33;12.03;;;5.43;;
18867;SDS011;9563;49.240;9.088;2022-12-07T01:37:00;8.47;;;4.80;;
18867;SDS011;9563;49.240;9.088;2022-12-07T01:39:27;11.17;;;5.30;;
18867;SDS011;9563;49.240;9.088;2022-12-07T01:41:56;9.63;;;4.90;;
18867;SDS011;9563;49.240;9.088;2022-12-07T01:44:23;12.23;;;5.97;;
18867;SDS011;9563;49.240;9.088;2022-12-07T01:46:52;10.00;;;5.43;;
18867;SDS011;9563;49.240;9.088;2022-12-07T01:49:22;11.50;;;6.23;;
18867;SDS011;9563;49.240;9.088;2022-12-07T01:51:54;9.97;;;5.33;;
18867;SDS011;9563;49.240;9.088;2022-12-07T01:54:26;11.00;;;5.80;;
18867;SDS011;9563;49.240;9.088;2022-12-07T01:56:53;12.47;;;5.57;;
18867;SDS011;9563;49.240;9.088;2022-12-07T01:59:23;9.30;;;5.33;;
18867;SDS011;9563;49.240;9.088;2022-12-07T02:01:52;12.10;;;6.87;;
18867;SDS011;9563;49.240;9.088;2022-12-07T02:04:19;10.70;;;6.30;;
18867;SDS011;9563;49.240;9.088;2022-12-07T02:06:48;12.70;;;6.37;;
18867;SDS011;9563;49.240;9.088;2022-12-07T02:09:15;9.77;;;6.20;;
18867;SDS011;9563;49.240;9.088;2022-12-07T02:11:43;13.07;;;6.30;;
18867;SDS011;9563;49.240;9.088;2022-12-07T02:14:11;11.97;;;5.77;;
18867;SDS011;9563;49.240;9.088;2022-12-07T02:16:41;11.93;;;6.83;;
18867;SDS011;9563;49.240;9.088;2022-12-07T02:19:22;12.23;;;6.57;;
18867;SDS011;9563;49.240;9.088;2022-12-07T02:22:00;11.70;;;6.67;;
18867;SDS011;9563;49.240;9.088;2022-12-07T02:24:43;10.97;;;6.43;;
18867;SDS011;9563;49.240;9.088;2022-12-07T02:27:33;15.60;;;6.77;;
18867;SDS011;9563;49.240;9.088;2022-12-07T02:30:06;12.10;;;6.03;;
18867;SDS011;9563;49.240;9.088;2022-12-07T02:32:40;10.70;;;6.33;;
18867;SDS011;9563;49.240;9.088;2022-12-07T02:35:13;12.30;;;6.43;;
18867;SDS011;9563;49.240;9.088;2022-12-07T02:37:47;13.63;;;6.57;;
18867;SDS011;9563;49.240;9.088;2022-12-07T02:40:22;10.93;;;6.20;;
18867;SDS011;9563;49.240;9.088;2022-12-07T02:42:56;11.13;;;5.93;;
18867;SDS011;9563;49.240;9.088;2022-12-07T02:45:29;11.67;;;6.70;;
18867;SDS011;9563;49.240;9.088;2022-12-07T02:47:58;13.53;;;6.77;;
18867;SDS011;9563;49.240;9.088;2022-12-07T02:50:26;12.67;;;6.97;;
18867;SDS011;9563;49.240;9.088;2022-12-07T02:52:54;13.33;;;7.80;;
18867;SDS011;9563;49.240;9.088;2022-12-07T02:55:22;17.97;;;8.57;;
18867;SDS011;9563;49.240;9.088;2022-12-07T02:57:59;14.67;;;7.73;;
18867;SDS011;9563;49.240;9.088;2022-12-07T03:00:42;19.63;;;9.13;;
18867;SDS011;9563;49.240;9.088;2022-12-07T03:03:17;19.30;;;9.20;;
18867;SDS011;9563;49.240;9.088;2022-12-07T03:05:49;19.50;;;8.97;;
18867;SDS011;9563;49.240;9.088;2022-12-07T03:08:30;14.00;;;8.60;;
18867;SDS011;9563;49.240;9.088;2022-12-07T03:11:02;18.13;;;8.10;;
18867;SDS011;9563;49.240;9.088;2022-12-07T03:13:33;16.50;;;8.70;;
18867;SDS011;9563;49.240;9.088;2022-12-07T03:16:07;15.70;;;8.23;;
18867;SDS011;9563;49.240;9.088;2022-12-07T03:18:39;15.13;;;8.20;;
18867;SDS011;9563;49.240;9.088;2022-12-07T03:21:10;17.40;;;8.83;;
18867;SDS011;9563;49.240;9.088;2022-12-07T03:23:41;16.47;;;8.57;;
18867;SDS011;9563;49.240;9.088;2022-12-07T03:26:12;15.07;;;7.93;;
18867;SDS011;9563;49.240;9.088;2022-12-07T03:28:43;15.40;;;8.40;;
18867;SDS011;9563;49.240;9.088;2022-12-07T03:31:16;20.27;;;8.57;;
18867;SDS011;9563;49.240;9.088;2022-12-07T03:33:46;15.43;;;8.50;;
18867;SDS011;9563;49.240;9.088;2022-12-07T03:36:20;15.00;;;9.07;;
18867;SDS011;9563;49.240;9.088;2022-12-07T03:38:53;17.73;;;8.90;;
18867;SDS011;9563;49.240;9.088;2022-12-07T03:41:24;15.27;;;8.80;;
18867;SDS011;9563;49.240;9.088;2022-12-07T03:43:53;18.87;;;9.00;;
18867;SDS011;9563;49.240;9.088;2022-12-07T03:46:24;15.67;;;8.50;;
18867;SDS011;9563;49.240;9.088;2022-12-07T03:48:59;17.10;;;9.27;;
18867;SDS011;9563;49.240;9.088;2022-12-07T03:51:33;13.97;;;8.77;;
18867;SDS011;9563;49.240;9.088;2022-12-07T03:54:08;13.33;;;7.50;;
18867;SDS011;9563;49.240;9.088;2022-12-07T03:56:37;14.93;;;8.30;;
18867;SDS011;9563;49.240;9.088;2022-12-07T03:59:05;14.80;;;7.87;;
18867;SDS011;9563;49.240;9.088;2022-12-07T04:01:35;19.50;;;8.70;;
18867;SDS011;9563;49.240;9.088;2022-12-07T04:04:01;15.43;;;8.70;;
18867;SDS011;9563;49.240;9.088;2022-12-07T04:06:29;16.80;;;9.43;;
18867;SDS011;9563;49.240;9.088;2022-12-07T04:08:56;13.67;;;8.17;;
18867;SDS011;9563;49.240;9.088;2022-12-07T04:11:23;14.80;;;8.23;;
18867;SDS011;9563;49.240;9.088;2022-12-07T04:13:50;15.90;;;8.50;;
18867;SDS011;9563;49.240;9.088;2022-12-07T04:16:36;15.63;;;7.77;;
18867;SDS011;9563;49.240;9.088;2022-12-07T04:19:02;15.70;;;8.67;;
18867;SDS011;9563;49.240;9.088;2022-12-07T04:21:29;15.67;;;8.23;;
18867;SDS011;9563;49.240;9.088;2022-12-07T04:23:56;14.10;;;8.60;;
18867;SDS011;9563;49.240;9.088;2022-12-07T04:26:23;14.07;;;7.93;;
18867;SDS011;9563;49.240;9.088;2022-12-07T04:28:50;14.30;;;7.87;;
18867;SDS011;9563;49.240;9.088;2022-12-07T04:31:17;13.83;;;7.60;;
18867;SDS011;9563;49.240;9.088;2022-12-07T04:33:45;14.93;;;8.93;;
18867;SDS011;9563;49.240;9.088;2022-12-07T04:36:12;15.70;;;8.47;;
18867;SDS011;9563;49.240;9.088;2022-12-07T04:38:39;19.00;;;9.17;;
18867;SDS011;9563;49.240;9.088;2022-12-07T04:41:06;15.37;;;7.97;;
18867;SDS011;9563;49.240;9.088;2022-12-07T04:43:34;18.70;;;8.80;;
18867;SDS011;9563;49.240;9.088;2022-12-07T04:46:01;22.30;;;8.33;;
18867;SDS011;9563;49.240;9.088;2022-12-07T04:48:28;14.93;;;8.27;;
18867;SDS011;9563;49.240;9.088;2022-12-07T04:50:57;16.93;;;8.47;;
18867;SDS011;9563;49.240;9.088;2022-12-07T04:53:24;18.27;;;8.83;;
18867;SDS011;9563;49.240;9.088;2022-12-07T04:55:51;13.67;;;8.00;;
18867;SDS011;9563;49.240;9.088;2022-12-07T04:58:18;16.10;;;7.90;;
18867;SDS011;9563;49.240;9.088;2022-12-07T05:00:44;16.07;;;8.87;;
18867;SDS011;9563;49.240;9.088;2022-12-07T05:03:11;16.30;;;8.70;;
18867;SDS011;9563;49.240;9.088;2022-12-07T05:05:39;17.53;;;8.50;;
18867;SDS011;9563;49.240;9.088;2022-12-07T05:08:08;16.47;;;9.10;;
18867;SDS011;9563;49.240;9.088;2022-12-07T05:10:35;18.77;;;8.53;;
18867;SDS011;9563;49.240;9.088;2022-12-07T05:13:02;15.87;;;8.53;;
18867;SDS011;9563;49.240;9.088;2022-12-07T05:15:29;17.03;;;8.73;;
18867;SDS011;9563;49.240;9.088;2022-12-07T05:17:55;20.77;;;9.40;;
18867;SDS011;9563;49.240;9.088;2022-12-07T05:20:22;17.50;;;9.80;;
18867;SDS011;9563;49.240;9.088;2022-12-07T05:22:49;15.47;;;9.07;;
18867;SDS011;9563;49.240;9.088;2022-12-07T05:25:17;19.43;;;9.47;;
18867;SDS011;9563;49.240;9.088;2022-12-07T05:27:44;17.10;;;9.10;;
18867;SDS011;9563;49.240;9.088;2022-12-07T05:30:12;23.07;;;9.90;;
18867;SDS011;9563;49.240;9.088;2022-12-07T05:32:39;20.07;;;9.23;;
18867;SDS011;9563;49.240;9.088;2022-12-07T05:35:06;19.70;;;9.90;;
18867;SDS011;9563;49.240;9.088;2022-12-07T05:37:33;19.30;;;9.30;;
18867;SDS011;9563;49.240;9.088;2022-12-07T05:40:00;21.30;;;9.67;;
18867;SDS011;9563;49.240;9.088;2022-12-07T05:42:29;21.23;;;10.03;;
18867;SDS011;9563;49.240;9.088;2022-12-07T05:44:56;21.37;;;10.30;;
18867;SDS011;9563;49.240;9.088;2022-12-07T05:47:23;18.63;;;9.27;;
18867;SDS011;9563;49.240;9.088;2022-12-07T05:49:49;17.50;;;9.00;;
18867;SDS011;9563;49.240;9.088;2022-12-07T05:52:16;19.70;;;9.50;;
18867;SDS011;9563;49.240;9.088;2022-12-07T05:54:43;23.17;;;9.73;;
18867;SDS011;9563;49.240;9.088;2022-12-07T05:57:10;17.87;;;9.70;;
18867;SDS011;9563;49.240;9.088;2022-12-07T05:59:38;22.43;;;10.90;;
18867;SDS011;9563;49.240;9.088;2022-12-07T06:02:06;21.30;;;9.67;;
18867;SDS011;9563;49.240;9.088;2022-12-07T06:04:35;16.30;;;9.17;;
18867;SDS011;9563;49.240;9.088;2022-12-07T06:07:03;19.13;;;9.00;;
18867;SDS011;9563;49.240;9.088;2022-12-07T06:09:31;15.23;;;8.60;;
18867;SDS011;9563;49.240;9.088;2022-12-07T06:11:58;18.70;;;9.70;;
18867;SDS011;9563;49.240;9.088;2022-12-07T06:14:45;16.63;;;8.53;;
18867;SDS011;9563;49.240;9.088;2022-12-07T06:17:12;14.27;;;8.73;;
18867;SDS011;9563;49.240;9.088;2022-12-07T06:19:39;16.63;;;8.17;;
18867;SDS011;9563;49.240;9.088;2022-12-07T06:22:07;17.23;;;8.73;;
18867;SDS011;9563;49.240;9.088;2022-12-07T06:24:35;13.33;;;8.07;;
18867;SDS011;9563;49.240;9.088;2022-12-07T06:27:02;15.97;;;8.43;;
18867;SDS011;9563;49.240;9.088;2022-12-07T06:29:30;14.27;;;8.30;;
18867;SDS011;9563;49.240;9.088;2022-12-07T06:31:58;15.10;;;8.40;;
18867;SDS011;9563;49.240;9.088;2022-12-07T06:34:25;16.37;;;8.50;;
18867;SDS011;9563;49.240;9.088;2022-12-07T06:36:53;16.57;;;8.97;;
18867;SDS011;9563;49.240;9.088;2022-12-07T06:39:20;19.43;;;8.87;;
18867;SDS011;9563;49.240;9.088;2022-12-07T06:41:48;18.20;;;9.20;;
18867;SDS011;9563;49.240;9.088;2022-12-07T06:44:16;15.77;;;8.53;;
18867;SDS011;9563;49.240;9.088;2022-12-07T06:46:44;15.83;;;8.47;;
18867;SDS011;9563;49.240;9.088;2022-12-07T06:49:12;16.97;;;9.23;;
18867;SDS011;9563;49.240;9.088;2022-12-07T06:51:39;16.70;;;9.03;;
18867;SDS011;9563;49.240;9.088;2022-12-07T06:54:07;18.17;;;8.67;;
18867;SDS011;9563;49.240;9.088;2022-12-07T06:56:34;17.97;;;8.73;;
18867;SDS011;9563;49.240;9.088;2022-12-07T06:59:01;14.50;;;8.37;;
18867;SDS011;9563;49.240;9.088;2022-12-07T07:01:30;18.87;;;8.83;;
18867;SDS011;9563;49.240;9.088;2022-12-07T07:03:57;14.43;;;7.93;;
18867;SDS011;9563;49.240;9.088;2022-12-07T07:06:26;15.83;;;7.90;;
18867;SDS011;9563;49.240;9.088;2022-12-07T07:08:53;16.47;;;8.17;;
18867;SDS011;9563;49.240;9.088;2022-12-07T07:11:20;16.40;;;8.70;;
18867;SDS011;9563;49.240;9.088;2022-12-07T07:13:47;15.50;;;8.00;;
18867;SDS011;9563;49.240;9.088;2022-12-07T07:16:14;14.20;;;8.60;;
18867;SDS011;9563;49.240;9.088;2022-12-07T07:18:41;17.40;;;8.63;;
18867;SDS011;9563;49.240;9.088;2022-12-07T07:21:08;17.37;;;8.50;;
18867;SDS011;9563;49.240;9.088;2022-12-07T07:23:36;15.50;;;8.40;;
18867;SDS011;9563;49.240;9.088;2022-12-07T07:26:03;15.27;;;7.67;;
18867;SDS011;9563;49.240;9.088;2022-12-07T07:28:30;17.10;;;7.97;;
18867;SDS011;9563;49.240;9.088;2022-12-07T07:30:57;18.07;;;9.57;;
18867;SDS011;9563;49.240;9.088;2022-12-07T07:33:24;17.17;;;7.90;;
18867;SDS011;9563;49.240;9.088;2022-12-07T07:35:51;19.63;;;8.80;;
18867;SDS011;9563;49.240;9.088;2022-12-07T07:38:18;17.20;;;8.70;;
18867;SDS011;9563;49.240;9.088;2022-12-07T07:40:46;16.40;;;9.07;;
18867;SDS011;9563;49.240;9.088;2022-12-07T07:43:13;19.00;;;8.83;;
18867;SDS011;9563;49.240;9.088;2022-12-07T07:45:40;19.23;;;10.00;;
18867;SDS011;9563;49.240;9.088;2022-12-07T07:48:07;19.90;;;9.03;;
18867;SDS011;9563;49.240;9.088;2022-12-07T07:50:34;17.20;;;8.40;;
18867;SDS011;9563;49.240;9.088;2022-12-07T07:53:01;16.90;;;9.23;;
18867;SDS011;9563;49.240;9.088;2022-12-07T07:55:28;24.20;;;10.20;;
18867;SDS011;9563;49.240;9.088;2022-12-07T07:57:57;18.73;;;9.33;;
18867;SDS011;9563;49.240;9.088;2022-12-07T08:00:24;15.47;;;8.33;;
18867;SDS011;9563;49.240;9.088;2022-12-07T08:02:51;16.90;;;9.03;;
18867;SDS011;9563;49.240;9.088;2022-12-07T08:05:18;16.83;;;8.90;;
18867;SDS011;9563;49.240;9.088;2022-12-07T08:07:45;20.47;;;9.27;;
18867;SDS011;9563;49.240;9.088;2022-12-07T08:10:12;16.30;;;8.37;;
18867;SDS011;9563;49.240;9.088;2022-12-07T08:12:40;16.63;;;8.83;;
18867;SDS011;9563;49.240;9.088;2022-12-07T08:15:24;18.50;;;9.77;;
18867;SDS011;9563;49.240;9.088;2022-12-07T08:17:51;16.07;;;8.77;;
18867;SDS011;9563;49.240;9.088;2022-12-07T08:20:18;21.43;;;10.13;;
18867;SDS011;9563;49.240;9.088;2022-12-07T08:22:45;16.50;;;9.00;;
18867;SDS011;9563;49.240;9.088;2022-12-07T08:25:12;18.57;;;9.20;;
18867;SDS011;9563;49.240;9.088;2022-12-07T08:27:39;17.70;;;9.13;;
18867;SDS011;9563;49.240;9.088;2022-12-07T08:30:06;18.43;;;9.47;;
18867;SDS011;9563;49.240;9.088;2022-12-07T08:32:35;21.53;;;10.27;;
18867;SDS011;9563;49.240;9.088;2022-12-07T08:35:02;18.47;;;9.33;;
18867;SDS011;9563;49.240;9.088;2022-12-07T08:37:30;21.37;;;9.90;;
18867;SDS011;9563;49.240;9.088;2022-12-07T08:39:58;20.70;;;10.23;;
18867;SDS011;9563;49.240;9.088;2022-12-07T08:42:25;18.00;;;9.83;;
18867;SDS011;9563;49.240;9.088;2022-12-07T08:44:55;21.30;;;10.00;;
18867;SDS011;9563;49.240;9.088;2022-12-07T08:47:23;22.77;;;10.30;;
18867;SDS011;9563;49.240;9.088;2022-12-07T08:49:52;20.87;;;9.83;;
18867;SDS011;9563;49.240;9.088;2022-12-07T08:52:20;22.67;;;10.67;;
18867;SDS011;9563;49.240;9.088;2022-12-07T08:54:47;20.33;;;10.13;;
18867;SDS011;9563;49.240;9.088;2022-12-07T08:57:15;24.03;;;11.10;;
18867;SDS011;9563;49.240;9.088;2022-12-07T08:59:42;22.27;;;10.17;;
18867;SDS011;9563;49.240;9.088;2022-12-07T09:02:09;23.70;;;10.67;;
18867;SDS011;9563;49.240;9.088;2022-12-07T09:04:36;21.97;;;10.10;;
18867;SDS011;9563;49.240;9.088;2022-12-07T09:07:05;24.20;;;11.10;;
18867;SDS011;9563;49.240;9.088;2022-12-07T09:09:32;20.43;;;9.53;;
18867;SDS011;9563;49.240;9.088;2022-12-07T09:11:59;23.07;;;10.80;;
18867;SDS011;9563;49.240;9.088;2022-12-07T09:14:26;21.73;;;10.47;;
18867;SDS011;9563;49.240;9.088;2022-12-07T09:16:53;20.23;;;10.23;;
18867;SDS011;9563;49.240;9.088;2022-12-07T09:19:20;22.80;;;10.00;;
18867;SDS011;9563;49.240;9.088;2022-12-07T09:21:47;22.27;;;11.10;;
18867;SDS011;9563;49.240;9.088;2022-12-07T09:24:15;19.00;;;10.07;;
18867;SDS011;9563;49.240;9.088;2022-12-07T09:26:43;21.97;;;10.60;;
18867;SDS011;9563;49.240;9.088;2022-12-07T09:29:10;19.33;;;9.60;;
18867;SDS011;9563;49.240;9.088;2022-12-07T09:31:37;16.90;;;8.87;;
18867;SDS011;9563;49.240;9.088;2022-12-07T09:34:04;18.53;;;9.50;;
18867;SDS011;9563;49.240;9.088;2022-12-07T09:36:32;17.57;;;9.23;;
18867;SDS011;9563;49.240;9.088;2022-12-07T09:38:59;21.93;;;10.43;;
18867;SDS011;9563;49.240;9.088;2022-12-07T09:41:29;20.13;;;9.63;;
18867;SDS011;9563;49.240;9.088;2022-12-07T09:43:58;16.93;;;10.17;;
18867;SDS011;9563;49.240;9.088;2022-12-07T09:46:30;19.57;;;9.73;;
18867;SDS011;9563;49.240;9.088;2022-12-07T09:49:02;22.47;;;10.57;;
18867;SDS011;9563;49.240;9.088;2022-12-07T09:51:30;22.57;;;10.30;;
18867;SDS011;9563;49.240;9.088;2022-12-07T09:53:58;19.63;;;9.93;;
18867;SDS011;9563;49.240;9.088;2022-12-07T09:56:29;19.23;;;10.20;;
18867;SDS011;9563;49.240;9.088;2022-12-07T09:58:58;22.37;;;9.57;;
18867;SDS011;9563;49.240;9.088;2022-12-07T10:01:27;24.97;;;10.20;;
18867;SDS011;9563;49.240;9.088;2022-12-07T10:03:59;21.30;;;11.07;;
18867;SDS011;9563;49.240;9.088;2022-12-07T10:06:32;20.93;;;9.93;;
18867;SDS011;9563;49.240;9.088;2022-12-07T10:08:59;20.67;;;10.10;;
18867;SDS011;9563;49.240;9.088;2022-12-07T10:11:25;23.50;;;10.53;;
18867;SDS011;9563;49.240;9.088;2022-12-07T10:13:54;20.83;;;10.20;;
18867;SDS011;9563;49.240;9.088;2022-12-07T10:16:37;23.63;;;10.10;;
18867;SDS011;9563;49.240;9.088;2022-12-07T10:19:19;19.17;;;9.13;;
18867;SDS011;9563;49.240;9.088;2022-12-07T10:22:07;18.60;;;9.80;;
18867;SDS011;9563;49.240;9.088;2022-12-07T10:24:37;18.03;;;9.27;;
18867;SDS011;9563;49.240;9.088;2022-12-07T10:27:10;17.73;;;8.90;;
18867;SDS011;9563;49.240;9.088;2022-12-07T10:29:48;17.43;;;8.80;;
18867;SDS011;9563;49.240;9.088;2022-12-07T10:32:30;17.50;;;9.17;;
18867;SDS011;9563;49.240;9.088;2022-12-07T10:35:18;19.97;;;9.37;;
18867;SDS011;9563;49.240;9.088;2022-12-07T10:37:50;20.43;;;9.17;;
18867;SDS011;9563;49.240;9.088;2022-12-07T10:40:26;20.37;;;9.53;;
18867;SDS011;9563;49.240;9.088;2022-12-07T10:43:15;21.30;;;9.90;;
18867;SDS011;9563;49.240;9.088;2022-12-07T10:45:57;19.57;;;9.87;;
18867;SDS011;9563;49.240;9.088;2022-12-07T10:48:41;20.93;;;10.27;;
18867;SDS011;9563;49.240;9.088;2022-12-07T10:51:18;21.13;;;10.27;;
18867;SDS011;9563;49.240;9.088;2022-12-07T10:53:57;22.80;;;11.37;;
18867;SDS011;9563;49.240;9.088;2022-12-07T10:56:39;22.43;;;10.57;;
18867;SDS011;9563;49.240;9.088;2022-12-07T10:59:22;22.33;;;10.53;;
18867;SDS011;9563;49.240;9.088;2022-12-07T11:02:09;21.30;;;9.77;;
18867;SDS011;9563;49.240;9.088;2022-12-07T11:04:49;22.17;;;10.40;;
18867;SDS011;9563;49.240;9.088;2022-12-07T11:07:27;25.27;;;10.37;;
18867;SDS011;9563;49.240;9.088;2022-12-07T11:10:05;24.13;;;9.90;;
18867;SDS011;9563;49.240;9.088;2022-12-07T11:12:42;21.17;;;9.77;;
18867;SDS011;9563;49.240;9.088;2022-12-07T11:15:22;20.13;;;8.70;;
18867;SDS011;9563;49.240;9.088;2022-12-07T11:17:56;23.70;;;10.67;;
18867;SDS011;9563;49.240;9.088;2022-12-07T11:20:34;25.17;;;10.37;;
18867;SDS011;9563;49.240;9.088;2022-12-07T11:23:11;22.30;;;9.80;;
18867;SDS011;9563;49.240;9.088;2022-12-07T11:25:47;20.93;;;10.80;;
18867;SDS011;9563;49.240;9.088;2022-12-07T11:28:23;22.90;;;10.30;;
18867;SDS011;9563;49.240;9.088;2022-12-07T11:31:01;21.27;;;10.70;;
18867;SDS011;9563;49.240;9.088;2022-12-07T11:33:40;23.50;;;9.67;;
18867;SDS011;9563;49.240;9.088;2022-12-07T11:36:16;22.57;;;10.73;;
18867;SDS011;9563;49.240;9.088;2022-12-07T11:38:53;21.10;;;9.90;;
18867;SDS011;9563;49.240;9.088;2022-12-07T11:41:25;21.03;;;9.97;;
18867;SDS011;9563;49.240;9.088;2022-12-07T11:43:57;19.83;;;9.67;;
18867;SDS011;9563;49.240;9.088;2022-12-07T11:46:29;20.80;;;9.73;;
18867;SDS011;9563;49.240;9.088;2022-12-07T11:49:12;20.00;;;9.43;;
18867;SDS011;9563;49.240;9.088;2022-12-07T11:51:45;20.70;;;9.87;;
18867;SDS011;9563;49.240;9.088;2022-12-07T11:54:17;19.03;;;9.60;;
18867;SDS011;9563;49.240;9.088;2022-12-07T11:56:49;19.27;;;9.63;;
18867;SDS011;9563;49.240;9.088;2022-12-07T11:59:19;20.47;;;10.50;;
18867;SDS011;9563;49.240;9.088;2022-12-07T12:01:53;18.13;;;9.07;;
18867;SDS011;9563;49.240;9.088;2022-12-07T12:04:26;20.43;;;9.73;;
18867;SDS011;9563;49.240;9.088;2022-12-07T12:06:58;20.47;;;10.17;;
18867;SDS011;9563;49.240;9.088;2022-12-07T12:09:26;24.67;;;10.30;;
18867;SDS011;9563;49.240;9.088;2022-12-07T12:12:01;20.90;;;8.80;;
18867;SDS011;9563;49.240;9.088;2022-12-07T12:14:45;19.43;;;9.93;;
18867;SDS011;9563;49.240;9.088;2022-12-07T12:17:29;21.13;;;10.17;;
18867;SDS011;9563;49.240;9.088;2022-12-07T12:20:22;19.67;;;10.27;;
18867;SDS011;9563;49.240;9.088;2022-12-07T12:22:53;19.73;;;10.43;;
18867;SDS011;9563;49.240;9.088;2022-12-07T12:25:24;18.77;;;10.07;;
18867;SDS011;9563;49.240;9.088;2022-12-07T12:27:54;19.03;;;9.03;;
18867;SDS011;9563;49.240;9.088;2022-12-07T12:30:25;18.77;;;9.37;;
18867;SDS011;9563;49.240;9.088;2022-12-07T12:33:03;19.80;;;8.83;;
18867;SDS011;9563;49.240;9.088;2022-12-07T12:35:40;17.13;;;8.83;;
18867;SDS011;9563;49.240;9.088;2022-12-07T12:38:25;20.97;;;9.73;;
18867;SDS011;9563;49.240;9.088;2022-12-07T12:40:54;20.10;;;9.37;;
18867;SDS011;9563;49.240;9.088;2022-12-07T12:46:35;18.30;;;8.97;;
18867;SDS011;9563;49.240;9.088;2022-12-07T12:49:14;18.10;;;9.40;;
18867;SDS011;9563;49.240;9.088;2022-12-07T12:52:27;19.17;;;9.13;;
18867;SDS011;9563;49.240;9.088;2022-12-07T12:55:13;18.90;;;9.20;;
18867;SDS011;9563;49.240;9.088;2022-12-07T12:57:46;19.93;;;9.40;;
18867;SDS011;9563;49.240;9.088;2022-12-07T13:00:17;21.23;;;9.80;;
18867;SDS011;9563;49.240;9.088;2022-12-07T13:02:48;18.80;;;9.60;;
18867;SDS011;9563;49.240;9.088;2022-12-07T13:05:17;21.03;;;9.13;;
18867;SDS011;9563;49.240;9.088;2022-12-07T13:10:44;21.17;;;8.93;;
18867;SDS011;9563;49.240;9.088;2022-12-07T13:13:32;17.90;;;9.07;;
18867;SDS011;9563;49.240;9.088;2022-12-07T13:25:09;16.00;;;8.60;;
18867;SDS011;9563;49.240;9.088;2022-12-07T13:27:40;20.50;;;10.17;;
18867;SDS011;9563;49.240;9.088;2022-12-07T13:30:13;19.47;;;9.03;;
18867;SDS011;9563;49.240;9.088;2022-12-07T13:32:43;24.67;;;11.20;;
18867;SDS011;9563;49.240;9.088;2022-12-07T13:35:30;20.97;;;10.13;;
18867;SDS011;9563;49.240;9.088;2022-12-07T13:37:59;22.83;;;10.30;;
18867;SDS011;9563;49.240;9.088;2022-12-07T13:40:30;20.43;;;10.10;;
18867;SDS011;9563;49.240;9.088;2022-12-07T13:42:57;17.97;;;10.13;;
18867;SDS011;9563;49.240;9.088;2022-12-07T13:45:26;23.60;;;11.63;;
18867;SDS011;9563;49.240;9.088;2022-12-07T13:48:09;26.10;;;10.90;;
18867;SDS011;9563;49.240;9.088;2022-12-07T13:50:40;25.53;;;11.67;;
18867;SDS011;9563;49.240;9.088;2022-12-07T13:53:10;26.53;;;10.73;;
18867;SDS011;9563;49.240;9.088;2022-12-07T13:55:45;27.23;;;11.20;;
18867;SDS011;9563;49.240;9.088;2022-12-07T13:58:13;22.50;;;10.40;;
18867;SDS011;9563;49.240;9.088;2022-12-07T14:00:41;27.70;;;11.50;;
18867;SDS011;9563;49.240;9.088;2022-12-07T14:03:26;22.07;;;11.03;;
18867;SDS011;9563;49.240;9.088;2022-12-07T14:06:06;24.53;;;10.43;;
18867;SDS011;9563;49.240;9.088;2022-12-07T14:08:41;23.87;;;10.47;;
18867;SDS011;9563;49.240;9.088;2022-12-07T14:11:11;24.53;;;11.07;;
18867;SDS011;9563;49.240;9.088;2022-12-07T14:13:44;24.43;;;11.77;;
18867;SDS011;9563;49.240;9.088;2022-12-07T14:16:21;21.63;;;10.53;;
18867;SDS011;9563;49.240;9.088;2022-12-07T14:18:52;23.13;;;11.67;;
18867;SDS011;9563;49.240;9.088;2022-12-07T14:21:20;25.40;;;10.90;;
18867;SDS011;9563;49.240;9.088;2022-12-07T14:24:02;26.57;;;11.60;;
18867;SDS011;9563;49.240;9.088;2022-12-07T14:26:36;23.80;;;10.97;;
18867;SDS011;9563;49.240;9.088;2022-12-07T14:29:29;25.97;;;11.00;;
18867;SDS011;9563;49.240;9.088;2022-12-07T14:32:04;26.40;;;12.27;;
18867;SDS011;9563;49.240;9.088;2022-12-07T14:34:55;23.40;;;11.17;;
18867;SDS011;9563;49.240;9.088;2022-12-07T14:37:23;24.67;;;11.13;;
18867;SDS011;9563;49.240;9.088;2022-12-07T14:39:50;22.83;;;11.30;;
18867;SDS011;9563;49.240;9.088;2022-12-07T14:42:18;26.33;;;11.00;;
18867;SDS011;9563;49.240;9.088;2022-12-07T14:44:49;27.27;;;11.70;;
18867;SDS011;9563;49.240;9.088;2022-12-07T14:47:15;25.10;;;11.93;;
18867;SDS011;9563;49.240;9.088;2022-12-07T14:49:42;22.13;;;10.27;;
18867;SDS011;9563;49.240;9.088;2022-12-07T14:52:11;24.07;;;10.57;;
18867;SDS011;9563;49.240;9.088;2022-12-07T14:54:41;24.00;;;11.90;;
18867;SDS011;9563;49.240;9.088;2022-12-07T14:57:09;24.00;;;11.53;;
18867;SDS011;9563;49.240;9.088;2022-12-07T14:59:37;24.33;;;11.17;;
18867;SDS011;9563;49.240;9.088;2022-12-07T15:02:05;25.47;;;10.63;;
18867;SDS011;9563;49.240;9.088;2022-12-07T15:04:32;24.63;;;11.63;;
18867;SDS011;9563;49.240;9.088;2022-12-07T15:07:00;25.77;;;12.53;;
18867;SDS011;9563;49.240;9.088;2022-12-07T15:09:29;27.23;;;12.10;;
18867;SDS011;9563;49.240;9.088;2022-12-07T15:11:55;24.97;;;11.07;;
18867;SDS011;9563;49.240;9.088;2022-12-07T15:14:22;23.67;;;10.73;;
18867;SDS011;9563;49.240;9.088;2022-12-07T15:16:51;24.97;;;11.97;;
18867;SDS011;9563;49.240;9.088;2022-12-07T15:19:18;23.20;;;11.13;;
18867;SDS011;9563;49.240;9.088;2022-12-07T15:21:48;21.83;;;10.67;;